NWS Home NWS Lubbock West Texas Mesonet Latest Conditions as of 1010 PM, Tue Jan 26, 2021

Latest   N   C   S   Daily Sum   3hrΔ   24hrΔ   Soil Data 
Site Map   24hr Precip   72hr Precip   Google Plot


Station Time of Last Temp Dew Pt. RH Wind Direction Wind Speed Wind Gust Max Wind Max Temp Min Temp Max RH Min RH Altimeter 1HR Rain Today's Rain Solar Rad Wind ChillRed FlagRFTI
Abernathy 5ENE  10:05 PM 33 28 83% W1012 28 mph 328° @ 0619 PM 46 25 95 52 29.98" 0 0 0 25   0
Adrian 6WSW  10:05 PM 26 22 87% SW1111 26 mph 186° @ 0552 PM 35 21 97 75 29.92" 0 0.04 0 16   0
Aiken 3WSW  10:05 PM 30 30 99% S88 30 mph 271° @ 0629 PM 44 24 99 56 29.99" 0 0 0 23   0
Amarillo 15NNW   10:05 PM 28 24 87% NE67 26 mph 108° @ 0103 PM 38 17 96 61 29.95" 0 0 0 21   0
Amarillo 7SSE  10:05 PM 28 27 100% S1112 20 mph 170° @ 0326 PM 38 20 100 60 29.95" 0 0 0 18   0
Amarillo 9NNE  10:05 PM 32 30 94% S68 24 mph 136° @ 0144 PM 37 18 98 61 29.95" 0 0 0 26   0
Amherst 1NE  10:05 PM 32 23 70% W1216 34 mph 298° @ 0505 PM 48 24 96 39 29.97" 0 0.01 0 23   0
Andrews 2E  10:05 PM 45 18 33% W1318 41 mph 274° @ 0446 PM 59 30 80 23 30.04" 0 0 0     0
Anton 6SSW  10:05 PM 32 26 78% SW79 30 mph 311° @ 0630 PM 46 28 96 47 30.00" 0 0 0 25   0
Aspermont 3NE  10:05 PM 39 32 76% E67 20 mph 347° @ 0935 PM 49 25 98 51 30.05" 0 0 0     0
Big Bend NP - Castolon  10:05 PM 58 24 27% NW1417 40 mph 292° @ 0754 PM 80 42 50 3 30.04" 0 0 0   28 0
Big Bend NP - Persimmon Gap  10:05 PM 50 25 38% NE89 49 mph 342° @ 0757 PM 75 38 71 5 30.06" 0 0 0   108 0
Big Lake 1WNW  10:05 PM 45 27 48% NW55 31 mph 326° @ 0651 PM 68 36 71 12 30.06" 0 0 0     0
Bootleg 11WNW  10:05 PM 27 21 78% W1820 32 mph 221° @ 0503 PM 38 20 100 62 29.95" 0 0.01 0 14   0
Borger 7E  10:05 PM 28 23 79% E810 18 mph 106° @ 0209 PM 31 19 93 72 29.98" 0 0 0 20   0
Boys Ranch 1WSW  10:05 PM 25 24 96% E22 20 mph 108° @ 1209 PM 36 18 99 73 29.97" 0 0.01 0     0
Brownfield 2S  10:05 PM 36 26 67% W57 47 mph 266° @ 0343 PM 50 28 92 30 30.01" 0 0 0     0
Canadian 6E  10:05 PM 22 21 96% N00 21 mph 15° @ 1019 AM 34 19 98 61 30.00" 0 0 0     0
Caprock Canyons State Park  10:05 PM 30 29 98% S910 16 mph 351° @ 0640 PM 39 26 98 61 30.01" 0 0 0 22   0
Childress 2NNE  10:05 PM 32 28 84% SE811 18 mph 24° @ 1225 PM 41 27 93 54 30.02" 0 0 0 25   0
Clarendon 2WSW  10:05 PM 28 26 95% S24 16 mph 11° @ 0535 AM 37 24 95 62 29.99" 0 0 0     0
Claude 12SW  10:05 PM 29 29 100% S710 17 mph 13° @ 0616 AM 37 22 100 63 29.96" 0 0 0 22   0
Clyde 2WNW  10:05 PM 43 31 63% NE79 22 mph 61° @ 0923 AM 56 31 97 38 30.04" 0 0 0     0
Colorado City 5NW  09:20 PM 43 33 67% E55 21 mph 80° @ 0836 AM 58 32 89 33 30.03" 0 0 0     0
Comanche Springs  10:05 PM 35 29 77% E78 20 mph 20° @ 1116 AM 44 22 97 52 30.04" 0 0 0 29   0
Coyanosa 2N  10:05 PM 47 19 32% W1013 33 mph 308° @ 0538 PM 62 27 82 21 30.09" 0 0 0     0
Crane 1NNW   10:05 PM 43 21 42% W66 30 mph 323° @ 0452 PM 64 31 81 15 30.07" 0 0 0     0
Crowell 1E  10:05 PM 35 29 79% E810 22 mph 16° @ 0840 PM 44 28 94 54 30.06" 0 0 0 29   0
Dell City  10:05 PM 34 24 68% S45 38 mph 267° @ 0508 PM 51 20 84 24 30.12" 0 0 0     0
Denver City 7WNW  10:05 PM 34 22 63% W67 41 mph 238° @ 0315 PM 48 27 90 23 30.02" 0 0 0 29   0
Dimmitt 2NE  10:05 PM 31 23 73% W1925 28 mph 232° @ 0610 PM 38 23 96 63 29.94" 0 0 0 19   0
Doole 3WNW  10:05 PM 49 34 55% N911 26 mph 354° @ 0645 PM 69 29 92 29 30.04" 0 0 0     0
Dora NM 2SW  10:05 PM 27 17 66% W1214 41 mph 274° @ 0440 PM 46 23 91 24 29.99" 0 0 0 17   0
Dozier 3W  10:05 PM 31 27 88% E810 23 mph 5° @ 0613 AM 38 26 95 57 30.03" 0 0 0 23   0
Earth 9WSW  10:05 PM 32 23 69% W1619 42 mph 254° @ 0355 PM 49 20 97 28 29.97" 0 0 0 21   0
Endee NM 2SW  10:05 PM 32 21 64% SW1619 32 mph 224° @ 0322 PM 38 19 96 63 29.94" 0 0.04 0 21   0
Estelline 3SSE  10:05 PM 34 28 81% SE78 16 mph 49° @ 1050 AM 41 27 94 53 30.02" 0 0 0 28   0
Floydada 2NNE  10:05 PM 30 30 100% SE79 20 mph 321° @ 0645 PM 44 23 100 53 29.98" 0 0 0 23   0
Fluvanna 3WNW  10:05 PM 41 32 69% E45 21 mph 61° @ 0920 AM 52 28 89 42 30.04" 0 0 0     0
Fort Chadbourne  10:05 PM 45 34 66% NE55 27 mph 11° @ 0534 PM 64 30 94 29 30.03" 0 0 0     0
Fort Lancaster  10:05 PM 51 26 37% NW57 26 mph 300° @ 0653 PM 75 32 98 10 30.06" 0 0 0     0
Fort Lewis CO  10:05 PM 16 10 78% W911 27 mph 284° @ 0530 PM 23 13 100 73 29.97" 0 0 0 5   0
Fort McKavett  10:05 PM 49 33 55% N1216 26 mph 334° @ 0721 PM 72 29 100 21 30.05" 0 0 0     0
Friona 2NE  10:05 PM 27 21 78% SW1417 28 mph 241° @ 0550 PM 38 19 93 62 29.95" 0 0 0 16   0
Fritch 1WNW  10:05 PM 29 23 79% E67 20 mph 104° @ 0140 PM 33 22 93 69 29.97" 0 0 0 23   0
Gail 2ESE  10:05 PM 45 28 52% N57 21 mph 342° @ 0454 PM 56 29 90 26 30.04" 0 0 0     0
Goodlett 3W  10:05 PM 32 28 84% E810 21 mph 39° @ 1130 AM 41 26 91 55 30.02" 0 0 0 25   0
Goodnight  10:05 PM 29 29 98% S910 19 mph 357° @ 0618 AM 37 23 98 60 29.98" 0 0 0 21   0
Graham 5SSW  10:05 PM 42 32 68% E22 33 mph 322° @ 0820 PM 51 29 90 28 30.02" 0 0 0     0
Guadalupe Mtns Natl Park  10:05 PM 32 20 59% W1318 55 mph 226° @ 0217 PM 42 31 76 22 30.04" 0 0.01 0 22   0
Guthrie 10WSW  10:05 PM 37 27 67% E710 24 mph 342° @ 0820 PM 47 26 94 45 30.02" 0 0 0     0
Hackberry 2SSE  10:05 PM 35 28 75% E89 18 mph 39° @ 1133 AM 45 26 93 50 30.03" 0 0 0 29   0
Happy 1E  10:05 PM 25 24 98% SW33 20 mph 160° @ 0234 PM 38 21 100 66 29.96" 0 0 0     0
Hart 3N  10:05 PM 28 26 93% SW68 21 mph 127° @ 1255 PM 42 23 99 62 29.95" 0 0 0 22   0
Haskell 1NW  10:05 PM 40 32 74% NE1316 24 mph 9° @ 0220 AM 49 26 96 52 30.06" 0 0 0     0
Hefner 1SW  10:05 PM 38 30 73% NE910 21 mph 20° @ 0943 AM 47 29 95 55 30.07" 0 0 0     0
Hereford 2NW  10:05 PM 27 22 80% W1721 21 mph 252° @ 0950 PM 38 22 94 64 29.93" 0 0 0 14   0
Hobbs NM 5NW  10:05 PM 34 19 53% NW1012 39 mph 247° @ 0212 PM 50 25 78 18 30.05" 0 0 0 26   0
Jayton 1SSE  10:05 PM 41 31 68% N913 20 mph 32° @ 0155 AM 50 28 98 48 30.04" 0 0 0     0
Junction 1SSW  10:05 PM 54 35 48% N1417 25 mph 343° @ 0911 PM 75 28 99 21 30.01" 0 0 0     0
Kent 9E  10:05 PM 40 21 47% W1113 34 mph 283° @ 0410 PM 58 30 57 14 30.09" 0 0 0   3 0
Knox City 3NW  10:05 PM 39 32 76% NE68 25 mph 338° @ 0901 PM 46 27 98 55 30.06" 0 0 0     0
Lake Alan Henry 1NW  10:05 PM 42 32 68% E46 20 mph 83° @ 0953 AM 52 29 92 42 30.05" 0 0 0     0
Lake McClellan 2NW  10:05 PM 27 25 94% S45 21 mph 4° @ 0652 AM 35 22 94 61 29.98" 0 0 0     0
Lamesa 2SE  10:05 PM 43 26 51% N57 41 mph 284° @ 0430 PM 55 29 91 26 30.04" 0 0 0     0
Lesley 2S  10:05 PM 32 31 97% NE22 16 mph 74° @ 1145 AM 41 27 98 57 30.02" 0 0 0     0
Levelland 4S  10:05 PM 34 24 68% SW911 38 mph 234° @ 0509 PM 48 28 93 27 29.99" 0 0 0 27   0
Lomax 1SSE  10:05 PM 46 23 39% W88 33 mph 319° @ 0515 PM 60 29 85 26 30.05" 0 0 0     0
Lubbock 3WNW TTU  10:05 PM 36 28 71% W79 34 mph 299° @ 0625 PM 49 27 94 30 29.99" 0 0 0     0
McAdoo 3NNW  10:05 PM 33 29 87% E78 41 mph 335° @ 0723 PM 45 26 94 56 30.01" 0 0 0 27   0
McCamey 1SSW  10:05 PM 41 28 59% W45 32 mph 305° @ 0611 PM 66 37 74 16 30.08" 0 0 0     0
McLean 1E  10:05 PM 27 24 86% SE78 22 mph 358° @ 0650 AM 35 22 93 61 29.97" 0 0 0 20   0
Memphis 1NE  10:05 PM 31 30 97% N22 18 mph 75° @ 1127 AM 40 28 97 55 30.03" 0 0 0     0
Menard 2NW   10:05 PM 50 35 57% NW1214 30 mph 354° @ 0844 PM 72 29 100 20 30.05" 0 0 0     0
Mertzon 3NNE  10:05 PM 45 33 64% SW23 26 mph 22° @ 0435 PM 72 26 100 15 30.06" 0 0 0     0
Morton 1ENE  10:05 PM 32 20 60% W1620 36 mph 266° @ 0500 PM 49 24 96 22 29.98" 0 0 0 21   0
Muleshoe 2SSW  10:05 PM 31 24 74% W1316 42 mph 213° @ 0305 PM 47 21 100 34 29.97" 0 0 0 21   0
New Home  10:05 PM 36 28 72% NW34 51 mph 262° @ 0409 PM 49 28 95 33 30.02" 0 0 0     0
Northfield 1S  10:05 PM 33 28 83% S46 21 mph 6° @ 0720 PM 42 26 94 51 30.01" 0 0 0     0
O'Donnell 1N  10:05 PM 40 29 64% NW34 40 mph 275° @ 0435 PM 54 28 93 31 30.02" 0 0 0     0
Odell 4ENE  10:05 PM 31 27 83% NE79 20 mph 24° @ 0805 PM 42 25 93 55 30.06" 0 0 0 24   0
Olton 6S  10:05 PM 29 24 82% SW810 33 mph 288° @ 0525 PM 45 25 99 56 29.96" 0 0.03 0 21   0
Paducah 10SW  10:05 PM 35 27 76% E68 29 mph 346° @ 0755 PM 43 26 96 54 30.02" 0 0 0     0
Palo Duro 4E (JA Ranch)  10:05 PM 31 30 100% S910 14 mph 6° @ 0542 AM 39 21 100 57 30.01" 0 0 0 23   0
Palo Duro Canyon SP Floor  10:05 PM 31 30 93% S67 17 mph 133° @ 0235 PM 41 24 95 57 29.99" 0 0.01 0 25   0
Palo Duro Canyon State Park Rim  10:05 PM 29 29 100% S89 20 mph 11° @ 0629 AM 38 24 100 60 29.96" 0 0 0 22   0
Palo Duro Reservoir 1NW   10:05 PM 21 19 92% NE89 19 mph 34° @ 0923 AM 25 19 92 81 29.99" 0 0 0 11   0
Pampa 2E  10:05 PM 26 23 91% E35 19 mph 350° @ 0745 AM 32 20 95 67 29.98" 0 0 0     0
Panhandle 1SSW  10:05 PM 30 30 100% S68 22 mph 153° @ 0845 PM 34 21 100 73 29.97" 0 0 0 24   0
Plains 3N  10:05 PM 34 23 62% SW1015 41 mph 251° @ 0445 PM 49 28 92 22 30.01" 0 0 0 26   0
Plainview 1S  10:05 PM 31 29 94% S45 30 mph 271° @ 0610 PM 45 26 96 54 29.98" 0 0 0     0
Post 1NE  10:05 PM 42 33 72% NW57 35 mph 279° @ 0812 PM 51 28 93 28 30.02" 0 0 0     0
Ralls 1SE  10:05 PM 35 31 88% SE45 28 mph 334° @ 0714 PM 45 27 96 53 30.00" 0 0 0     0
Reese Center  10:05 PM 31 26 81% SW89 36 mph 242° @ 0541 PM 49 28 92 31 29.99" 0 0 0 24   0
Roaring Springs 3N  02:45 PM 40 26 56% E34 21 mph 50° @ 1040 AM 40 26 97 56 29.88" 0 0 576     0
Romero 11SSW  10:05 PM 28 26 93% N45 19 mph 67° @ 0757 AM 31 22 95 83 29.93" 0 0.05 0     0
Rotan 5W  10:05 PM 39 33 79% SE78 22 mph 349° @ 0147 AM 51 29 93 49 30.03" 0 0 0     0
San Angelo 7NW  10:05 PM 45 35 68% S23 22 mph 347° @ 0830 PM 66 28 91 33 30.04" 0 0 0     0
Seagraves 1SW  10:05 PM 35 25 67% W810 44 mph 257° @ 0330 PM 51 27 94 26 30.03" 0 0 0 29   0
Segovia 7SSW  10:05 PM 51 36 56% N1722 29 mph 342° @ 0952 PM 72 43 59 22 30.00" 0 0 0     0
Seminole 2NNE  10:05 PM 37 23 55% N45 44 mph 271° @ 0520 PM 54 28 90 24 30.04" 0 0 0     0
Seymour 3NW  10:05 PM 37 31 79% N1014 18 mph 4° @ 0945 PM 47 28 97 52 30.07" 0 0 0     0
Sierra Blanca 1SSE  10:05 PM 33 28 81% NW1621 42 mph 310° @ 0725 PM 46 31 82 27 30.11" 0 0 0 22   0
Silverton 7ESE  10:05 PM 27 27 100% S1011 16 mph 10° @ 0505 AM 38 24 100 65 29.97" 0 0 0 18   0
Slaton 2NE  10:05 PM 38 30 72% N00 46 mph 236° @ 0425 PM 48 27 94 35 30.01" 0 0 0     0
Smyer  10:05 PM 35 25 67% W910 32 mph 238° @ 0528 PM 48 27 92 31 30.00" 0 0 0 28   0
Snyder 3E  10:05 PM 40 32 73% E811 22 mph 49° @ 0730 AM 54 29 93 41 30.03" 0 0 0     0
Snyder 3SSW  10:05 PM 41 33 73% E66 21 mph 68° @ 0938 AM 55 30 96 38 30.04" 0 0 0     0
South Plains 3ENE  10:05 PM 29 29 100% SE89 25 mph 316° @ 0630 PM 41 25 100 59 29.98" 0 0 0 21   0
Spur 1W  10:05 PM 38 28 69% E58 30 mph 6° @ 0830 PM 49 28 90 40 30.02" 0 0 0     0
St. Lawrence 5SW  10:05 PM 40 21 45% W79 36 mph 335° @ 0615 PM 60 30 80 20 30.05" 0 0 0     0
Stamford 5ESE  10:05 PM 42 33 71% SE33 23 mph 357° @ 1253 AM 53 30 95 42 30.05" 0 0 0     0
Sterling City 4WSW  10:05 PM 45 30 56% SW44 24 mph 337° @ 0708 PM 64 25 94 20 30.04" 0 0 0     0
Stinnett 1NNW  10:05 PM 25 22 87% E1112 18 mph 106° @ 0144 PM 28 18 100 79 29.97" 0 0 0 15   0
Stratford 4WNW  10:05 PM 20 18 93% NE68 16 mph 92° @ 1201 PM 23 14 93 85 29.95" 0 0 0 11   0
Sundown 8WSW  10:05 PM 30 21 68% SW68 38 mph 230° @ 0415 PM 49 25 95 24 30.00" 0 0 0 24   0
Sweetwater 11SW   10:05 PM 39 33 79% NE78 25 mph 50° @ 0830 AM 59 29 97 38 30.04" 0 0 0     0
Tahoka 3NNE  10:05 PM 38 27 64% NW44 38 mph 265° @ 0421 PM 51 27 92 31 30.01" 0 0 0     0
Tarzan 2WNW  10:05 PM 48 17 30% W1316 37 mph 302° @ 0432 PM 61 30 93 21 30.05" 0 0 0     0
Tatum NM 2SW  10:05 PM 29 19 67% W1315 48 mph 241° @ 0330 PM 49 21 91 18 30.02" 0 0 0 18   0
Throckmorton 1SW  10:05 PM 41 33 73% N810 18 mph 52° @ 1025 AM 50 28 99 47 30.07" 0 0 0     0
Truscott 2SE  10:05 PM 37 30 75% NE89 21 mph 25° @ 1048 AM 46 27 93 51 30.06" 0 0 0     0
Tulia 2ENE  10:05 PM 28 27 97% S79 18 mph 131° @ 0315 PM 40 23 97 66 29.97" 0 0 0 20   0
Turkey 2WSW  10:05 PM 31 30 97% S89 19 mph 308° @ 0705 PM 39 26 97 62 30.00" 0 0 0 23   0
Umbarger 3NNE  10:05 PM 27 23 85% SW78 23 mph 141° @ 0120 PM 38 20 99 63 29.94" 0 0 0 20   0
Van Horn 3ENE  10:05 PM 39 25 56% NW811 36 mph 296° @ 0451 PM 54 31 56 23 30.11" 0 0 0     0
Vega 4E  10:05 PM 19 16 88% SW1113 24 mph 172° @ 0202 PM 37 18 98 66 29.92" 0 0 0 7   0
Vigo Park  10:05 PM 27 27 100% S810 15 mph 97° @ 1025 AM 39 24 100 64 29.97" 0 0 0 19   0
Wall 2E  10:05 PM 48 34 60% NE67 22 mph 359° @ 0825 PM 67 31 91 35 30.06" 0 0 0     0
Weinert 2NNE  10:05 PM 39 30 70% NE1012 20 mph 44° @ 0935 AM 47 28 91 54 30.07" 0 0 0     0
Welch  10:05 PM 38 30 71% W45 41 mph 264° @ 0400 PM 53 29 100 31 30.04" 0 0 0     0
White River Lake 6NW  10:05 PM 36 30 79% NE23 23 mph 13° @ 0815 PM 46 28 92 51 30.01" 0 0 0     0
Wolfforth 6SSW  10:05 PM 35 27 73% NW1113 41 mph 240° @ 0308 PM 49 27 94 31 30.00" 0 0 0 27   0

West Texas Mesonet Home   Site Map/Menu  NWS Lubbock Soil Data  Daily Summary Page  24hr Precip  72hr Precip  Google Plot